sensor_id;sensor_type;location;lat;lon;timestamp;temperature;humidity
5278;DHT22;2662;51.194;6.614;2023-11-21T00:01:13;10.70;99.90
5278;DHT22;2662;51.194;6.614;2023-11-21T00:03:39;10.70;99.90
5278;DHT22;2662;51.194;6.614;2023-11-21T00:06:07;10.70;99.90
5278;DHT22;2662;51.194;6.614;2023-11-21T00:08:35;10.60;99.90
5278;DHT22;2662;51.194;6.614;2023-11-21T00:11:02;10.50;99.90
5278;DHT22;2662;51.194;6.614;2023-11-21T00:13:30;10.40;99.90
5278;DHT22;2662;51.194;6.614;2023-11-21T00:15:58;10.40;99.90
5278;DHT22;2662;51.194;6.614;2023-11-21T00:18:26;10.30;99.90
5278;DHT22;2662;51.194;6.614;2023-11-21T00:20:53;10.30;99.90
5278;DHT22;2662;51.194;6.614;2023-11-21T00:23:20;10.20;99.90
5278;DHT22;2662;51.194;6.614;2023-11-21T00:25:48;10.20;99.90
5278;DHT22;2662;51.194;6.614;2023-11-21T00:28:17;10.20;99.90
5278;DHT22;2662;51.194;6.614;2023-11-21T00:30:44;10.10;99.90
5278;DHT22;2662;51.194;6.614;2023-11-21T00:33:11;10.10;99.90
5278;DHT22;2662;51.194;6.614;2023-11-21T00:35:39;10.00;99.90
5278;DHT22;2662;51.194;6.614;2023-11-21T00:38:06;9.90;99.90
5278;DHT22;2662;51.194;6.614;2023-11-21T00:40:34;9.80;99.90
5278;DHT22;2662;51.194;6.614;2023-11-21T00:43:03;9.70;99.90
5278;DHT22;2662;51.194;6.614;2023-11-21T00:45:30;9.60;99.90
5278;DHT22;2662;51.194;6.614;2023-11-21T00:47:57;9.60;99.90
5278;DHT22;2662;51.194;6.614;2023-11-21T00:50:27;9.50;99.90
5278;DHT22;2662;51.194;6.614;2023-11-21T00:52:55;9.40;99.90
5278;DHT22;2662;51.194;6.614;2023-11-21T00:55:22;9.40;99.90
5278;DHT22;2662;51.194;6.614;2023-11-21T00:57:51;9.40;99.90
5278;DHT22;2662;51.194;6.614;2023-11-21T01:00:18;9.30;99.90
5278;DHT22;2662;51.194;6.614;2023-11-21T01:02:47;9.30;99.90
5278;DHT22;2662;51.194;6.614;2023-11-21T01:05:14;9.20;99.90
5278;DHT22;2662;51.194;6.614;2023-11-21T01:07:41;9.30;99.90
5278;DHT22;2662;51.194;6.614;2023-11-21T01:10:09;9.40;99.90
5278;DHT22;2662;51.194;6.614;2023-11-21T01:12:36;9.40;99.90
5278;DHT22;2662;51.194;6.614;2023-11-21T01:15:05;9.50;99.90
5278;DHT22;2662;51.194;6.614;2023-11-21T01:17:33;9.60;99.90
5278;DHT22;2662;51.194;6.614;2023-11-21T01:20:01;9.70;99.90
5278;DHT22;2662;51.194;6.614;2023-11-21T01:22:28;9.70;99.90
5278;DHT22;2662;51.194;6.614;2023-11-21T01:24:55;9.80;99.90
5278;DHT22;2662;51.194;6.614;2023-11-21T01:27:24;9.90;99.90
5278;DHT22;2662;51.194;6.614;2023-11-21T01:29:52;10.00;99.90
5278;DHT22;2662;51.194;6.614;2023-11-21T01:32:19;10.00;99.90
5278;DHT22;2662;51.194;6.614;2023-11-21T01:34:47;10.00;99.90
5278;DHT22;2662;51.194;6.614;2023-11-21T01:37:14;10.00;99.90
5278;DHT22;2662;51.194;6.614;2023-11-21T01:39:43;9.90;99.90
5278;DHT22;2662;51.194;6.614;2023-11-21T01:42:11;10.00;99.90
5278;DHT22;2662;51.194;6.614;2023-11-21T01:44:40;10.00;99.90
5278;DHT22;2662;51.194;6.614;2023-11-21T01:47:08;10.00;99.90
5278;DHT22;2662;51.194;6.614;2023-11-21T01:49:36;10.00;99.90
5278;DHT22;2662;51.194;6.614;2023-11-21T01:52:04;10.10;99.90
5278;DHT22;2662;51.194;6.614;2023-11-21T01:54:31;10.10;99.90
5278;DHT22;2662;51.194;6.614;2023-11-21T01:56:58;10.20;99.90
5278;DHT22;2662;51.194;6.614;2023-11-21T01:59:30;10.30;99.90
5278;DHT22;2662;51.194;6.614;2023-11-21T02:02:01;10.30;99.90
5278;DHT22;2662;51.194;6.614;2023-11-21T02:04:31;10.40;99.90
5278;DHT22;2662;51.194;6.614;2023-11-21T02:06:59;10.40;99.90
5278;DHT22;2662;51.194;6.614;2023-11-21T02:09:28;10.40;99.90
5278;DHT22;2662;51.194;6.614;2023-11-21T02:11:57;10.40;99.90
5278;DHT22;2662;51.194;6.614;2023-11-21T02:14:24;10.40;99.90
5278;DHT22;2662;51.194;6.614;2023-11-21T02:16:52;10.40;99.90
5278;DHT22;2662;51.194;6.614;2023-11-21T02:19:23;10.40;99.90
5278;DHT22;2662;51.194;6.614;2023-11-21T02:21:51;10.40;99.90
5278;DHT22;2662;51.194;6.614;2023-11-21T02:24:21;10.40;99.90
5278;DHT22;2662;51.194;6.614;2023-11-21T02:26:48;10.40;99.90
5278;DHT22;2662;51.194;6.614;2023-11-21T02:29:16;10.40;99.90
5278;DHT22;2662;51.194;6.614;2023-11-21T02:31:44;10.40;99.90
5278;DHT22;2662;51.194;6.614;2023-11-21T02:34:14;10.40;99.90
5278;DHT22;2662;51.194;6.614;2023-11-21T02:36:42;10.40;99.90
5278;DHT22;2662;51.194;6.614;2023-11-21T02:39:10;10.40;99.90
5278;DHT22;2662;51.194;6.614;2023-11-21T02:41:38;10.40;99.90
5278;DHT22;2662;51.194;6.614;2023-11-21T02:44:05;10.50;99.90
5278;DHT22;2662;51.194;6.614;2023-11-21T02:46:35;10.50;99.90
5278;DHT22;2662;51.194;6.614;2023-11-21T02:49:06;10.50;99.90
5278;DHT22;2662;51.194;6.614;2023-11-21T02:51:33;10.50;99.90
5278;DHT22;2662;51.194;6.614;2023-11-21T02:54:01;10.50;99.90
5278;DHT22;2662;51.194;6.614;2023-11-21T02:56:31;10.50;99.90
5278;DHT22;2662;51.194;6.614;2023-11-21T02:59:00;10.50;99.90
5278;DHT22;2662;51.194;6.614;2023-11-21T03:01:27;10.50;99.90
5278;DHT22;2662;51.194;6.614;2023-11-21T03:03:54;10.50;99.90
5278;DHT22;2662;51.194;6.614;2023-11-21T03:06:22;10.50;99.90
5278;DHT22;2662;51.194;6.614;2023-11-21T03:08:50;10.50;99.90
5278;DHT22;2662;51.194;6.614;2023-11-21T03:11:17;10.40;99.90
5278;DHT22;2662;51.194;6.614;2023-11-21T03:13:46;10.40;99.90
5278;DHT22;2662;51.194;6.614;2023-11-21T03:16:15;10.40;99.90
5278;DHT22;2662;51.194;6.614;2023-11-21T03:18:42;10.40;99.90
5278;DHT22;2662;51.194;6.614;2023-11-21T03:21:09;10.40;99.90
5278;DHT22;2662;51.194;6.614;2023-11-21T03:23:37;10.40;99.90
5278;DHT22;2662;51.194;6.614;2023-11-21T03:26:04;10.40;99.90
5278;DHT22;2662;51.194;6.614;2023-11-21T03:28:34;10.40;99.90
5278;DHT22;2662;51.194;6.614;2023-11-21T03:31:01;10.40;99.90
5278;DHT22;2662;51.194;6.614;2023-11-21T03:33:30;10.40;99.90
5278;DHT22;2662;51.194;6.614;2023-11-21T03:35:57;10.40;99.90
5278;DHT22;2662;51.194;6.614;2023-11-21T03:38:24;10.40;99.90
5278;DHT22;2662;51.194;6.614;2023-11-21T03:40:51;10.30;99.90
5278;DHT22;2662;51.194;6.614;2023-11-21T03:43:20;10.40;99.90
5278;DHT22;2662;51.194;6.614;2023-11-21T03:45:47;10.40;99.90
5278;DHT22;2662;51.194;6.614;2023-11-21T03:48:15;10.30;99.90
5278;DHT22;2662;51.194;6.614;2023-11-21T03:50:43;10.40;99.90
5278;DHT22;2662;51.194;6.614;2023-11-21T03:53:11;10.40;99.90
5278;DHT22;2662;51.194;6.614;2023-11-21T03:55:39;10.40;99.90
5278;DHT22;2662;51.194;6.614;2023-11-21T03:58:20;10.40;99.90
5278;DHT22;2662;51.194;6.614;2023-11-21T04:00:47;10.40;99.90
5278;DHT22;2662;51.194;6.614;2023-11-21T04:03:16;10.40;99.90
5278;DHT22;2662;51.194;6.614;2023-11-21T04:05:45;10.50;99.90
5278;DHT22;2662;51.194;6.614;2023-11-21T04:08:12;10.50;99.90
5278;DHT22;2662;51.194;6.614;2023-11-21T04:10:39;10.50;99.90
5278;DHT22;2662;51.194;6.614;2023-11-21T04:13:07;10.50;99.90
5278;DHT22;2662;51.194;6.614;2023-11-21T04:15:34;10.50;99.90
5278;DHT22;2662;51.194;6.614;2023-11-21T04:18:01;10.50;99.90
5278;DHT22;2662;51.194;6.614;2023-11-21T04:20:29;10.50;99.90
5278;DHT22;2662;51.194;6.614;2023-11-21T04:22:57;10.50;99.90
5278;DHT22;2662;51.194;6.614;2023-11-21T04:25:24;10.50;99.90
5278;DHT22;2662;51.194;6.614;2023-11-21T04:27:52;10.50;99.90
5278;DHT22;2662;51.194;6.614;2023-11-21T04:30:19;10.50;99.90
5278;DHT22;2662;51.194;6.614;2023-11-21T04:32:52;10.50;99.90
5278;DHT22;2662;51.194;6.614;2023-11-21T04:35:19;10.50;99.90
5278;DHT22;2662;51.194;6.614;2023-11-21T04:37:46;10.40;99.90
5278;DHT22;2662;51.194;6.614;2023-11-21T04:40:14;10.40;99.90
5278;DHT22;2662;51.194;6.614;2023-11-21T04:42:41;10.30;99.90
5278;DHT22;2662;51.194;6.614;2023-11-21T04:45:09;10.20;99.90
5278;DHT22;2662;51.194;6.614;2023-11-21T04:47:37;10.10;99.90
5278;DHT22;2662;51.194;6.614;2023-11-21T04:50:05;10.10;99.90
5278;DHT22;2662;51.194;6.614;2023-11-21T04:52:34;10.00;99.90
5278;DHT22;2662;51.194;6.614;2023-11-21T04:55:02;10.00;99.90
5278;DHT22;2662;51.194;6.614;2023-11-21T04:57:30;10.00;99.90
5278;DHT22;2662;51.194;6.614;2023-11-21T04:59:57;10.00;99.90
5278;DHT22;2662;51.194;6.614;2023-11-21T05:02:24;10.00;99.90
5278;DHT22;2662;51.194;6.614;2023-11-21T05:04:50;10.10;99.90
5278;DHT22;2662;51.194;6.614;2023-11-21T05:07:18;10.10;99.90
5278;DHT22;2662;51.194;6.614;2023-11-21T05:09:46;10.10;99.90
5278;DHT22;2662;51.194;6.614;2023-11-21T05:12:15;10.20;99.90
5278;DHT22;2662;51.194;6.614;2023-11-21T05:14:45;10.20;99.90
5278;DHT22;2662;51.194;6.614;2023-11-21T05:17:14;10.20;99.90
5278;DHT22;2662;51.194;6.614;2023-11-21T05:19:41;10.20;99.90
5278;DHT22;2662;51.194;6.614;2023-11-21T05:22:08;10.30;99.90
5278;DHT22;2662;51.194;6.614;2023-11-21T05:24:37;10.30;99.90
5278;DHT22;2662;51.194;6.614;2023-11-21T05:27:07;10.30;99.90
5278;DHT22;2662;51.194;6.614;2023-11-21T05:29:36;10.30;99.90
5278;DHT22;2662;51.194;6.614;2023-11-21T05:32:05;10.40;99.90
5278;DHT22;2662;51.194;6.614;2023-11-21T05:34:34;10.30;99.90
5278;DHT22;2662;51.194;6.614;2023-11-21T05:37:02;10.30;99.90
5278;DHT22;2662;51.194;6.614;2023-11-21T05:39:30;10.40;99.90
5278;DHT22;2662;51.194;6.614;2023-11-21T05:41:58;10.30;99.90
5278;DHT22;2662;51.194;6.614;2023-11-21T05:44:25;10.30;99.90
5278;DHT22;2662;51.194;6.614;2023-11-21T05:46:52;10.30;99.90
5278;DHT22;2662;51.194;6.614;2023-11-21T05:49:21;10.30;99.90
5278;DHT22;2662;51.194;6.614;2023-11-21T05:51:52;10.30;99.90
5278;DHT22;2662;51.194;6.614;2023-11-21T05:54:19;10.30;99.90
5278;DHT22;2662;51.194;6.614;2023-11-21T05:56:47;10.30;99.90
5278;DHT22;2662;51.194;6.614;2023-11-21T05:59:14;10.30;99.90
5278;DHT22;2662;51.194;6.614;2023-11-21T06:01:41;10.30;99.90
5278;DHT22;2662;51.194;6.614;2023-11-21T06:04:09;10.30;99.90
5278;DHT22;2662;51.194;6.614;2023-11-21T06:06:39;10.30;99.90
5278;DHT22;2662;51.194;6.614;2023-11-21T06:09:06;10.30;99.90
5278;DHT22;2662;51.194;6.614;2023-11-21T06:11:34;10.30;99.90
5278;DHT22;2662;51.194;6.614;2023-11-21T06:14:02;10.30;99.90
5278;DHT22;2662;51.194;6.614;2023-11-21T06:16:30;10.30;99.90
5278;DHT22;2662;51.194;6.614;2023-11-21T06:18:57;10.30;99.90
5278;DHT22;2662;51.194;6.614;2023-11-21T06:21:24;10.30;99.90
5278;DHT22;2662;51.194;6.614;2023-11-21T06:23:52;10.30;99.90
5278;DHT22;2662;51.194;6.614;2023-11-21T06:26:19;10.30;99.90
5278;DHT22;2662;51.194;6.614;2023-11-21T06:28:46;10.30;99.90
5278;DHT22;2662;51.194;6.614;2023-11-21T06:31:18;10.30;99.90
5278;DHT22;2662;51.194;6.614;2023-11-21T06:33:45;10.30;99.90
5278;DHT22;2662;51.194;6.614;2023-11-21T06:36:12;10.30;99.90
5278;DHT22;2662;51.194;6.614;2023-11-21T06:38:42;10.20;99.90
5278;DHT22;2662;51.194;6.614;2023-11-21T06:41:11;10.20;99.90
5278;DHT22;2662;51.194;6.614;2023-11-21T06:43:40;10.10;99.90
5278;DHT22;2662;51.194;6.614;2023-11-21T06:46:10;10.10;99.90
5278;DHT22;2662;51.194;6.614;2023-11-21T06:48:41;10.10;99.90
5278;DHT22;2662;51.194;6.614;2023-11-21T06:51:08;10.10;99.90
5278;DHT22;2662;51.194;6.614;2023-11-21T06:53:36;10.10;99.90
5278;DHT22;2662;51.194;6.614;2023-11-21T06:56:14;10.10;99.90
5278;DHT22;2662;51.194;6.614;2023-11-21T06:58:43;10.20;99.90
5278;DHT22;2662;51.194;6.614;2023-11-21T07:01:12;10.20;99.90
5278;DHT22;2662;51.194;6.614;2023-11-21T07:03:40;10.20;99.90
5278;DHT22;2662;51.194;6.614;2023-11-21T07:06:09;10.20;99.90
5278;DHT22;2662;51.194;6.614;2023-11-21T07:08:38;10.10;99.90
5278;DHT22;2662;51.194;6.614;2023-11-21T07:11:05;10.20;99.90
5278;DHT22;2662;51.194;6.614;2023-11-21T07:13:33;10.20;99.90
5278;DHT22;2662;51.194;6.614;2023-11-21T07:16:02;10.20;99.90
5278;DHT22;2662;51.194;6.614;2023-11-21T07:18:30;10.30;99.90
5278;DHT22;2662;51.194;6.614;2023-11-21T07:20:56;10.40;99.90
5278;DHT22;2662;51.194;6.614;2023-11-21T07:23:24;10.40;99.90
5278;DHT22;2662;51.194;6.614;2023-11-21T07:25:51;10.50;99.90
5278;DHT22;2662;51.194;6.614;2023-11-21T07:28:18;10.50;99.90
5278;DHT22;2662;51.194;6.614;2023-11-21T07:30:45;10.50;99.90
5278;DHT22;2662;51.194;6.614;2023-11-21T07:33:15;10.60;99.90
5278;DHT22;2662;51.194;6.614;2023-11-21T07:35:42;10.70;99.90
5278;DHT22;2662;51.194;6.614;2023-11-21T07:38:09;10.70;99.90
5278;DHT22;2662;51.194;6.614;2023-11-21T07:40:37;10.70;99.90
5278;DHT22;2662;51.194;6.614;2023-11-21T07:43:04;10.80;99.90
5278;DHT22;2662;51.194;6.614;2023-11-21T07:45:32;10.80;99.90
5278;DHT22;2662;51.194;6.614;2023-11-21T07:48:01;10.80;99.90
5278;DHT22;2662;51.194;6.614;2023-11-21T07:50:32;10.80;99.90
5278;DHT22;2662;51.194;6.614;2023-11-21T07:52:59;10.80;99.90
5278;DHT22;2662;51.194;6.614;2023-11-21T07:55:26;10.80;99.90
5278;DHT22;2662;51.194;6.614;2023-11-21T07:57:58;10.80;99.90
5278;DHT22;2662;51.194;6.614;2023-11-21T08:00:25;10.70;99.90
5278;DHT22;2662;51.194;6.614;2023-11-21T08:02:55;10.70;99.90
5278;DHT22;2662;51.194;6.614;2023-11-21T08:05:26;10.70;99.90
5278;DHT22;2662;51.194;6.614;2023-11-21T08:07:54;10.70;99.90
5278;DHT22;2662;51.194;6.614;2023-11-21T08:10:21;10.60;99.90
5278;DHT22;2662;51.194;6.614;2023-11-21T08:12:49;10.70;99.90
5278;DHT22;2662;51.194;6.614;2023-11-21T08:15:19;10.70;99.90
5278;DHT22;2662;51.194;6.614;2023-11-21T08:17:46;10.80;99.90
5278;DHT22;2662;51.194;6.614;2023-11-21T08:20:14;10.90;99.90
5278;DHT22;2662;51.194;6.614;2023-11-21T08:22:41;11.00;99.90
5278;DHT22;2662;51.194;6.614;2023-11-21T08:25:11;11.10;99.90
5278;DHT22;2662;51.194;6.614;2023-11-21T08:27:38;11.30;99.90
5278;DHT22;2662;51.194;6.614;2023-11-21T08:30:06;11.40;99.90
5278;DHT22;2662;51.194;6.614;2023-11-21T08:32:36;11.50;99.90
5278;DHT22;2662;51.194;6.614;2023-11-21T08:35:04;11.60;99.90
5278;DHT22;2662;51.194;6.614;2023-11-21T08:37:33;11.60;99.90
5278;DHT22;2662;51.194;6.614;2023-11-21T08:40:03;11.60;99.90
5278;DHT22;2662;51.194;6.614;2023-11-21T08:42:31;11.50;99.90
5278;DHT22;2662;51.194;6.614;2023-11-21T08:44:58;11.40;99.90
5278;DHT22;2662;51.194;6.614;2023-11-21T08:47:24;11.20;99.90
5278;DHT22;2662;51.194;6.614;2023-11-21T08:49:52;11.20;99.90
5278;DHT22;2662;51.194;6.614;2023-11-21T08:52:20;11.30;99.90
5278;DHT22;2662;51.194;6.614;2023-11-21T08:54:48;11.40;99.90
5278;DHT22;2662;51.194;6.614;2023-11-21T08:57:21;11.50;99.90
5278;DHT22;2662;51.194;6.614;2023-11-21T08:59:50;11.60;99.90
5278;DHT22;2662;51.194;6.614;2023-11-21T09:02:20;11.60;99.90
5278;DHT22;2662;51.194;6.614;2023-11-21T09:04:48;11.70;99.90
5278;DHT22;2662;51.194;6.614;2023-11-21T09:07:16;11.70;99.90
5278;DHT22;2662;51.194;6.614;2023-11-21T09:09:44;11.70;99.90
5278;DHT22;2662;51.194;6.614;2023-11-21T09:12:11;11.70;99.90
5278;DHT22;2662;51.194;6.614;2023-11-21T09:14:38;11.70;99.90
5278;DHT22;2662;51.194;6.614;2023-11-21T09:17:09;11.80;99.90
5278;DHT22;2662;51.194;6.614;2023-11-21T09:19:39;11.80;99.90
5278;DHT22;2662;51.194;6.614;2023-11-21T09:22:06;11.70;99.90
5278;DHT22;2662;51.194;6.614;2023-11-21T09:24:34;11.80;99.90
5278;DHT22;2662;51.194;6.614;2023-11-21T09:27:01;11.80;99.90
5278;DHT22;2662;51.194;6.614;2023-11-21T09:29:31;11.90;99.90
5278;DHT22;2662;51.194;6.614;2023-11-21T09:31:57;12.00;99.90
5278;DHT22;2662;51.194;6.614;2023-11-21T09:34:27;12.10;99.90
5278;DHT22;2662;51.194;6.614;2023-11-21T09:36:54;12.20;99.90
5278;DHT22;2662;51.194;6.614;2023-11-21T09:39:21;12.20;99.90
5278;DHT22;2662;51.194;6.614;2023-11-21T09:41:51;12.40;99.90
5278;DHT22;2662;51.194;6.614;2023-11-21T09:44:25;12.50;99.90
5278;DHT22;2662;51.194;6.614;2023-11-21T09:46:58;12.60;99.90
5278;DHT22;2662;51.194;6.614;2023-11-21T09:49:28;12.70;99.90
5278;DHT22;2662;51.194;6.614;2023-11-21T09:52:02;12.70;99.90
5278;DHT22;2662;51.194;6.614;2023-11-21T09:54:32;12.60;99.90
5278;DHT22;2662;51.194;6.614;2023-11-21T09:57:02;12.60;99.90
5278;DHT22;2662;51.194;6.614;2023-11-21T09:59:30;12.60;99.90
5278;DHT22;2662;51.194;6.614;2023-11-21T10:02:00;12.60;99.90
5278;DHT22;2662;51.194;6.614;2023-11-21T10:04:31;12.70;99.90
5278;DHT22;2662;51.194;6.614;2023-11-21T10:06:58;12.70;99.90
5278;DHT22;2662;51.194;6.614;2023-11-21T10:09:26;12.70;99.90
5278;DHT22;2662;51.194;6.614;2023-11-21T10:11:53;12.70;99.90
5278;DHT22;2662;51.194;6.614;2023-11-21T10:14:24;12.90;99.90
5278;DHT22;2662;51.194;6.614;2023-11-21T10:16:56;12.90;99.90
5278;DHT22;2662;51.194;6.614;2023-11-21T10:19:26;13.00;99.90
5278;DHT22;2662;51.194;6.614;2023-11-21T10:21:56;13.20;99.90
5278;DHT22;2662;51.194;6.614;2023-11-21T10:24:25;13.10;99.90
5278;DHT22;2662;51.194;6.614;2023-11-21T10:26:52;13.00;99.90
5278;DHT22;2662;51.194;6.614;2023-11-21T10:29:20;13.00;99.90
5278;DHT22;2662;51.194;6.614;2023-11-21T10:31:50;13.00;99.90
5278;DHT22;2662;51.194;6.614;2023-11-21T10:34:19;13.10;99.90
5278;DHT22;2662;51.194;6.614;2023-11-21T10:36:47;13.10;99.90
5278;DHT22;2662;51.194;6.614;2023-11-21T10:39:17;13.10;99.90
5278;DHT22;2662;51.194;6.614;2023-11-21T10:41:44;13.00;99.90
5278;DHT22;2662;51.194;6.614;2023-11-21T10:44:14;12.90;99.90
5278;DHT22;2662;51.194;6.614;2023-11-21T10:46:46;13.10;99.90
5278;DHT22;2662;51.194;6.614;2023-11-21T10:49:17;13.20;99.90
5278;DHT22;2662;51.194;6.614;2023-11-21T10:51:46;13.30;99.90
5278;DHT22;2662;51.194;6.614;2023-11-21T10:54:18;13.30;99.90
5278;DHT22;2662;51.194;6.614;2023-11-21T10:56:50;13.40;99.90
5278;DHT22;2662;51.194;6.614;2023-11-21T10:59:18;13.20;99.90
5278;DHT22;2662;51.194;6.614;2023-11-21T11:01:47;13.00;99.90
5278;DHT22;2662;51.194;6.614;2023-11-21T11:04:18;13.00;99.90
5278;DHT22;2662;51.194;6.614;2023-11-21T11:06:54;12.80;99.90
5278;DHT22;2662;51.194;6.614;2023-11-21T11:09:23;12.60;99.90
5278;DHT22;2662;51.194;6.614;2023-11-21T11:11:51;12.50;99.90
5278;DHT22;2662;51.194;6.614;2023-11-21T11:14:20;12.30;99.90
5278;DHT22;2662;51.194;6.614;2023-11-21T11:16:52;12.20;99.90
5278;DHT22;2662;51.194;6.614;2023-11-21T11:19:19;12.10;99.90
5278;DHT22;2662;51.194;6.614;2023-11-21T11:22:03;12.00;99.90
5278;DHT22;2662;51.194;6.614;2023-11-21T11:24:49;11.90;99.90
5278;DHT22;2662;51.194;6.614;2023-11-21T11:27:30;12.00;99.90
5278;DHT22;2662;51.194;6.614;2023-11-21T11:30:11;12.20;99.90
5278;DHT22;2662;51.194;6.614;2023-11-21T11:32:49;12.30;99.90
5278;DHT22;2662;51.194;6.614;2023-11-21T11:35:29;12.50;99.90
5278;DHT22;2662;51.194;6.614;2023-11-21T11:37:58;12.60;99.90
5278;DHT22;2662;51.194;6.614;2023-11-21T11:40:38;12.60;99.90
5278;DHT22;2662;51.194;6.614;2023-11-21T11:43:06;12.90;99.90
5278;DHT22;2662;51.194;6.614;2023-11-21T11:45:43;13.10;99.90
5278;DHT22;2662;51.194;6.614;2023-11-21T11:48:20;13.30;99.90
5278;DHT22;2662;51.194;6.614;2023-11-21T11:51:02;13.20;99.90
5278;DHT22;2662;51.194;6.614;2023-11-21T11:53:40;13.10;99.90
5278;DHT22;2662;51.194;6.614;2023-11-21T11:56:27;13.00;99.90
5278;DHT22;2662;51.194;6.614;2023-11-21T11:58:58;13.00;99.90
5278;DHT22;2662;51.194;6.614;2023-11-21T12:01:26;13.00;99.90
5278;DHT22;2662;51.194;6.614;2023-11-21T12:04:24;13.10;99.90
5278;DHT22;2662;51.194;6.614;2023-11-21T12:06:57;13.20;99.90
5278;DHT22;2662;51.194;6.614;2023-11-21T12:09:26;13.20;99.90
5278;DHT22;2662;51.194;6.614;2023-11-21T12:11:56;13.30;99.90
5278;DHT22;2662;51.194;6.614;2023-11-21T12:14:23;13.50;99.90
5278;DHT22;2662;51.194;6.614;2023-11-21T12:16:49;13.70;99.90
5278;DHT22;2662;51.194;6.614;2023-11-21T12:19:19;13.70;99.90
5278;DHT22;2662;51.194;6.614;2023-11-21T12:21:48;13.40;99.90
5278;DHT22;2662;51.194;6.614;2023-11-21T12:24:16;13.40;99.90
5278;DHT22;2662;51.194;6.614;2023-11-21T12:26:43;13.50;99.90
5278;DHT22;2662;51.194;6.614;2023-11-21T12:29:21;13.50;99.90
5278;DHT22;2662;51.194;6.614;2023-11-21T12:31:49;13.40;99.90
5278;DHT22;2662;51.194;6.614;2023-11-21T12:34:16;13.50;99.90
5278;DHT22;2662;51.194;6.614;2023-11-21T12:36:43;13.50;99.90
5278;DHT22;2662;51.194;6.614;2023-11-21T12:39:12;13.50;99.90
5278;DHT22;2662;51.194;6.614;2023-11-21T12:41:40;13.30;99.90
5278;DHT22;2662;51.194;6.614;2023-11-21T12:44:11;13.20;99.90
5278;DHT22;2662;51.194;6.614;2023-11-21T12:46:42;13.30;99.90
5278;DHT22;2662;51.194;6.614;2023-11-21T12:49:10;13.20;99.90
5278;DHT22;2662;51.194;6.614;2023-11-21T12:51:43;13.20;99.90
5278;DHT22;2662;51.194;6.614;2023-11-21T12:54:11;13.40;99.90
5278;DHT22;2662;51.194;6.614;2023-11-21T12:56:41;13.50;99.90
5278;DHT22;2662;51.194;6.614;2023-11-21T12:59:08;13.70;99.90
5278;DHT22;2662;51.194;6.614;2023-11-21T13:01:43;13.70;99.90
5278;DHT22;2662;51.194;6.614;2023-11-21T13:04:10;13.60;99.90
5278;DHT22;2662;51.194;6.614;2023-11-21T13:06:39;13.50;99.90
5278;DHT22;2662;51.194;6.614;2023-11-21T13:09:07;13.50;99.90
5278;DHT22;2662;51.194;6.614;2023-11-21T13:11:36;13.60;99.90
5278;DHT22;2662;51.194;6.614;2023-11-21T13:14:06;13.70;99.90
5278;DHT22;2662;51.194;6.614;2023-11-21T13:16:33;13.70;99.90
5278;DHT22;2662;51.194;6.614;2023-11-21T13:19:01;13.70;99.90
5278;DHT22;2662;51.194;6.614;2023-11-21T13:21:28;13.60;99.90
5278;DHT22;2662;51.194;6.614;2023-11-21T13:23:56;13.50;99.90
5278;DHT22;2662;51.194;6.614;2023-11-21T13:26:22;13.50;99.90
5278;DHT22;2662;51.194;6.614;2023-11-21T13:28:51;13.20;99.90
5278;DHT22;2662;51.194;6.614;2023-11-21T13:31:19;13.00;99.90
5278;DHT22;2662;51.194;6.614;2023-11-21T13:33:52;13.00;99.90
5278;DHT22;2662;51.194;6.614;2023-11-21T13:36:24;12.90;99.90
5278;DHT22;2662;51.194;6.614;2023-11-21T13:38:56;12.80;99.90
5278;DHT22;2662;51.194;6.614;2023-11-21T13:41:25;12.80;99.90
5278;DHT22;2662;51.194;6.614;2023-11-21T13:43:57;12.90;99.90
5278;DHT22;2662;51.194;6.614;2023-11-21T13:46:39;12.90;99.90
5278;DHT22;2662;51.194;6.614;2023-11-21T13:49:07;13.00;99.90
5278;DHT22;2662;51.194;6.614;2023-11-21T13:51:41;13.00;99.90
5278;DHT22;2662;51.194;6.614;2023-11-21T13:54:10;13.10;99.90
5278;DHT22;2662;51.194;6.614;2023-11-21T13:56:37;13.10;99.90
5278;DHT22;2662;51.194;6.614;2023-11-21T13:59:06;13.00;99.90
5278;DHT22;2662;51.194;6.614;2023-11-21T14:01:44;13.00;99.90
5278;DHT22;2662;51.194;6.614;2023-11-21T14:04:25;12.90;99.90
5278;DHT22;2662;51.194;6.614;2023-11-21T14:07:15;12.90;99.90
5278;DHT22;2662;51.194;6.614;2023-11-21T14:09:54;12.80;99.90
5278;DHT22;2662;51.194;6.614;2023-11-21T14:12:21;12.70;99.90
5278;DHT22;2662;51.194;6.614;2023-11-21T14:14:48;12.60;99.90
5278;DHT22;2662;51.194;6.614;2023-11-21T14:17:16;12.50;99.90
5278;DHT22;2662;51.194;6.614;2023-11-21T14:19:42;12.50;99.90
5278;DHT22;2662;51.194;6.614;2023-11-21T14:22:09;12.60;99.90
5278;DHT22;2662;51.194;6.614;2023-11-21T14:24:38;12.60;99.90
5278;DHT22;2662;51.194;6.614;2023-11-21T14:27:09;12.50;99.90
5278;DHT22;2662;51.194;6.614;2023-11-21T14:29:36;12.50;99.90
5278;DHT22;2662;51.194;6.614;2023-11-21T14:32:05;12.30;99.90
5278;DHT22;2662;51.194;6.614;2023-11-21T14:34:33;12.10;99.90
5278;DHT22;2662;51.194;6.614;2023-11-21T14:37:01;11.90;99.90
5278;DHT22;2662;51.194;6.614;2023-11-21T14:39:29;11.90;99.90
5278;DHT22;2662;51.194;6.614;2023-11-21T14:42:00;11.90;99.90
5278;DHT22;2662;51.194;6.614;2023-11-21T14:44:28;11.80;99.90
5278;DHT22;2662;51.194;6.614;2023-11-21T14:47:01;11.80;99.90
5278;DHT22;2662;51.194;6.614;2023-11-21T14:49:33;11.60;99.90
5278;DHT22;2662;51.194;6.614;2023-11-21T14:52:13;11.50;99.90
5278;DHT22;2662;51.194;6.614;2023-11-21T14:54:57;11.50;99.90
5278;DHT22;2662;51.194;6.614;2023-11-21T14:57:47;11.40;99.90
5278;DHT22;2662;51.194;6.614;2023-11-21T15:00:16;11.40;99.90
5278;DHT22;2662;51.194;6.614;2023-11-21T15:02:58;11.30;99.90
5278;DHT22;2662;51.194;6.614;2023-11-21T15:05:26;11.30;99.90
5278;DHT22;2662;51.194;6.614;2023-11-21T15:07:55;11.40;99.90
5278;DHT22;2662;51.194;6.614;2023-11-21T15:10:30;11.30;99.90
5278;DHT22;2662;51.194;6.614;2023-11-21T15:13:12;11.40;99.90
5278;DHT22;2662;51.194;6.614;2023-11-21T15:15:38;11.40;99.90
5278;DHT22;2662;51.194;6.614;2023-11-21T15:18:05;11.40;99.90
5278;DHT22;2662;51.194;6.614;2023-11-21T15:20:32;11.40;99.90
5278;DHT22;2662;51.194;6.614;2023-11-21T15:22:58;11.30;99.90
5278;DHT22;2662;51.194;6.614;2023-11-21T15:25:26;11.30;99.90
5278;DHT22;2662;51.194;6.614;2023-11-21T15:27:53;11.30;99.90
5278;DHT22;2662;51.194;6.614;2023-11-21T15:30:22;11.30;99.90
5278;DHT22;2662;51.194;6.614;2023-11-21T15:32:50;11.30;99.90
5278;DHT22;2662;51.194;6.614;2023-11-21T15:35:20;11.30;99.90
5278;DHT22;2662;51.194;6.614;2023-11-21T15:37:48;11.40;99.90
5278;DHT22;2662;51.194;6.614;2023-11-21T15:40:16;11.40;99.90
5278;DHT22;2662;51.194;6.614;2023-11-21T15:42:43;11.40;99.90
5278;DHT22;2662;51.194;6.614;2023-11-21T15:45:10;11.50;99.90
5278;DHT22;2662;51.194;6.614;2023-11-21T15:47:39;11.60;99.90
5278;DHT22;2662;51.194;6.614;2023-11-21T15:50:06;11.60;99.90
5278;DHT22;2662;51.194;6.614;2023-11-21T15:52:36;11.60;99.90
5278;DHT22;2662;51.194;6.614;2023-11-21T15:55:04;11.50;99.90
5278;DHT22;2662;51.194;6.614;2023-11-21T15:57:32;11.50;99.90
5278;DHT22;2662;51.194;6.614;2023-11-21T15:59:59;11.40;99.90
5278;DHT22;2662;51.194;6.614;2023-11-21T16:02:34;11.40;99.90
5278;DHT22;2662;51.194;6.614;2023-11-21T16:05:03;11.20;99.90
5278;DHT22;2662;51.194;6.614;2023-11-21T16:07:31;11.10;99.90
5278;DHT22;2662;51.194;6.614;2023-11-21T16:10:01;11.10;99.90
5278;DHT22;2662;51.194;6.614;2023-11-21T16:12:27;11.00;99.90
5278;DHT22;2662;51.194;6.614;2023-11-21T16:14:54;11.00;99.90